sensor_id;sensor_type;location;lat;lon;timestamp;temperature;humidity
67759;SHT31;54562;47.620;18.786;2022-12-07T00:02:28;2.58;87.68
67759;SHT31;54562;47.620;18.786;2022-12-07T00:05:34;2.57;87.75
67759;SHT31;54562;47.620;18.786;2022-12-07T00:08:39;2.58;87.80
67759;SHT31;54562;47.620;18.786;2022-12-07T00:11:44;2.59;87.79
67759;SHT31;54562;47.620;18.786;2022-12-07T00:14:52;2.56;87.71
67759;SHT31;54562;47.620;18.786;2022-12-07T00:17:57;2.55;87.70
67759;SHT31;54562;47.620;18.786;2022-12-07T00:21:02;2.55;87.70
67759;SHT31;54562;47.620;18.786;2022-12-07T00:24:10;2.53;87.61
67759;SHT31;54562;47.620;18.786;2022-12-07T00:27:15;2.51;87.60
67759;SHT31;54562;47.620;18.786;2022-12-07T00:30:20;2.50;87.60
67759;SHT31;54562;47.620;18.786;2022-12-07T00:33:25;2.48;87.60
67759;SHT31;54562;47.620;18.786;2022-12-07T00:36:31;2.46;87.60
67759;SHT31;54562;47.620;18.786;2022-12-07T00:39:35;2.45;87.61
67759;SHT31;54562;47.620;18.786;2022-12-07T00:42:40;2.42;87.55
67759;SHT31;54562;47.620;18.786;2022-12-07T00:45:45;2.38;87.50
67759;SHT31;54562;47.620;18.786;2022-12-07T00:48:50;2.34;87.53
67759;SHT31;54562;47.620;18.786;2022-12-07T00:51:56;2.31;87.53
67759;SHT31;54562;47.620;18.786;2022-12-07T00:55:01;2.25;87.46
67759;SHT31;54562;47.620;18.786;2022-12-07T00:58:07;2.18;87.31
67759;SHT31;54562;47.620;18.786;2022-12-07T01:01:13;2.14;87.37
67759;SHT31;54562;47.620;18.786;2022-12-07T01:04:18;2.09;87.32
67759;SHT31;54562;47.620;18.786;2022-12-07T01:07:23;2.03;87.21
67759;SHT31;54562;47.620;18.786;2022-12-07T01:10:28;1.98;87.29
67759;SHT31;54562;47.620;18.786;2022-12-07T01:13:33;1.97;87.42
67759;SHT31;54562;47.620;18.786;2022-12-07T01:16:39;1.96;87.52
67759;SHT31;54562;47.620;18.786;2022-12-07T01:19:44;1.96;87.50
67759;SHT31;54562;47.620;18.786;2022-12-07T01:22:49;1.93;87.47
67759;SHT31;54562;47.620;18.786;2022-12-07T01:25:55;1.88;87.32
67759;SHT31;54562;47.620;18.786;2022-12-07T01:29:01;1.77;87.08
67759;SHT31;54562;47.620;18.786;2022-12-07T01:32:06;1.74;87.47
67759;SHT31;54562;47.620;18.786;2022-12-07T01:35:11;1.76;87.72
67759;SHT31;54562;47.620;18.786;2022-12-07T01:38:16;1.78;87.97
67759;SHT31;54562;47.620;18.786;2022-12-07T01:41:21;1.83;88.16
67759;SHT31;54562;47.620;18.786;2022-12-07T01:44:29;1.87;88.30
67759;SHT31;54562;47.620;18.786;2022-12-07T01:47:35;1.92;88.45
67759;SHT31;54562;47.620;18.786;2022-12-07T01:50:40;1.97;88.50
67759;SHT31;54562;47.620;18.786;2022-12-07T01:53:51;2.02;88.54
67759;SHT31;54562;47.620;18.786;2022-12-07T01:56:57;2.06;88.61
67759;SHT31;54562;47.620;18.786;2022-12-07T02:00:04;2.08;88.60
67759;SHT31;54562;47.620;18.786;2022-12-07T02:03:13;2.12;88.66
67759;SHT31;54562;47.620;18.786;2022-12-07T02:06:24;2.15;88.65
67759;SHT31;54562;47.620;18.786;2022-12-07T02:09:29;2.19;88.70
67759;SHT31;54562;47.620;18.786;2022-12-07T02:12:34;2.23;88.69
67759;SHT31;54562;47.620;18.786;2022-12-07T02:19:35;2.32;88.70
67759;SHT31;54562;47.620;18.786;2022-12-07T02:23:18;2.37;88.70
67759;SHT31;54562;47.620;18.786;2022-12-07T02:30:38;2.44;88.60
67759;SHT31;54562;47.620;18.786;2022-12-07T02:33:50;2.45;88.60
67759;SHT31;54562;47.620;18.786;2022-12-07T02:37:09;2.46;88.51
67759;SHT31;54562;47.620;18.786;2022-12-07T02:40:27;2.45;88.50
67759;SHT31;54562;47.620;18.786;2022-12-07T02:43:38;2.45;88.47
67759;SHT31;54562;47.620;18.786;2022-12-07T02:46:48;2.46;88.54
67759;SHT31;54562;47.620;18.786;2022-12-07T02:49:58;2.44;88.60
67759;SHT31;54562;47.620;18.786;2022-12-07T02:56:38;2.46;88.69
67759;SHT31;54562;47.620;18.786;2022-12-07T02:59:55;2.47;88.70
67759;SHT31;54562;47.620;18.786;2022-12-07T03:03:09;2.48;88.71
67759;SHT31;54562;47.620;18.786;2022-12-07T03:06:19;2.50;88.85
67759;SHT31;54562;47.620;18.786;2022-12-07T03:09:30;2.54;88.94
67759;SHT31;54562;47.620;18.786;2022-12-07T03:12:47;2.58;89.00
67759;SHT31;54562;47.620;18.786;2022-12-07T03:16:08;2.62;89.01
67759;SHT31;54562;47.620;18.786;2022-12-07T03:19:19;2.64;89.13
67759;SHT31;54562;47.620;18.786;2022-12-07T03:22:27;2.67;89.20
67759;SHT31;54562;47.620;18.786;2022-12-07T03:25:38;2.69;89.20
67759;SHT31;54562;47.620;18.786;2022-12-07T03:28:44;2.67;89.16
67759;SHT31;54562;47.620;18.786;2022-12-07T03:31:56;2.65;89.11
67759;SHT31;54562;47.620;18.786;2022-12-07T03:35:09;2.63;89.25
67759;SHT31;54562;47.620;18.786;2022-12-07T03:38:20;2.62;89.38
67759;SHT31;54562;47.620;18.786;2022-12-07T03:41:32;2.63;89.48
67759;SHT31;54562;47.620;18.786;2022-12-07T03:44:46;2.65;89.56
67759;SHT31;54562;47.620;18.786;2022-12-07T03:47:53;2.67;89.60
67759;SHT31;54562;47.620;18.786;2022-12-07T03:51:11;2.70;89.63
67759;SHT31;54562;47.620;18.786;2022-12-07T03:54:26;2.71;89.70
67759;SHT31;54562;47.620;18.786;2022-12-07T03:57:38;2.74;89.70
67759;SHT31;54562;47.620;18.786;2022-12-07T04:00:46;2.75;89.77
67759;SHT31;54562;47.620;18.786;2022-12-07T04:03:53;2.78;89.80
67759;SHT31;54562;47.620;18.786;2022-12-07T04:06:58;2.80;89.88
67759;SHT31;54562;47.620;18.786;2022-12-07T04:10:03;2.81;89.89
67759;SHT31;54562;47.620;18.786;2022-12-07T04:13:10;2.81;89.92
67759;SHT31;54562;47.620;18.786;2022-12-07T04:16:14;2.84;90.06
67759;SHT31;54562;47.620;18.786;2022-12-07T04:19:20;2.87;90.17
67759;SHT31;54562;47.620;18.786;2022-12-07T04:22:27;2.90;90.18
67759;SHT31;54562;47.620;18.786;2022-12-07T04:25:32;2.91;90.21
67759;SHT31;54562;47.620;18.786;2022-12-07T04:28:36;2.93;90.28
67759;SHT31;54562;47.620;18.786;2022-12-07T04:31:41;2.93;90.22
67759;SHT31;54562;47.620;18.786;2022-12-07T04:34:47;2.93;90.22
67759;SHT31;54562;47.620;18.786;2022-12-07T04:37:57;2.92;90.24
67759;SHT31;54562;47.620;18.786;2022-12-07T04:41:04;2.91;90.21
67759;SHT31;54562;47.620;18.786;2022-12-07T04:44:11;2.90;90.24
67759;SHT31;54562;47.620;18.786;2022-12-07T04:47:18;2.90;90.23
67759;SHT31;54562;47.620;18.786;2022-12-07T04:50:24;2.88;90.24
67759;SHT31;54562;47.620;18.786;2022-12-07T04:53:29;2.88;90.28
67759;SHT31;54562;47.620;18.786;2022-12-07T04:56:33;2.87;90.22
67759;SHT31;54562;47.620;18.786;2022-12-07T04:59:39;2.84;90.21
67759;SHT31;54562;47.620;18.786;2022-12-07T05:02:47;2.83;90.20
67759;SHT31;54562;47.620;18.786;2022-12-07T05:05:52;2.79;90.14
67759;SHT31;54562;47.620;18.786;2022-12-07T05:08:57;2.72;90.10
67759;SHT31;54562;47.620;18.786;2022-12-07T05:12:02;2.69;90.10
67759;SHT31;54562;47.620;18.786;2022-12-07T05:15:07;2.64;90.05
67759;SHT31;54562;47.620;18.786;2022-12-07T05:18:13;2.58;89.97
67759;SHT31;54562;47.620;18.786;2022-12-07T05:21:18;2.50;89.94
67759;SHT31;54562;47.620;18.786;2022-12-07T05:24:23;2.43;89.92
67759;SHT31;54562;47.620;18.786;2022-12-07T05:27:28;2.36;89.93
67759;SHT31;54562;47.620;18.786;2022-12-07T05:30:33;2.31;90.09
67759;SHT31;54562;47.620;18.786;2022-12-07T05:33:38;2.29;90.18
67759;SHT31;54562;47.620;18.786;2022-12-07T05:36:42;2.28;90.20
67759;SHT31;54562;47.620;18.786;2022-12-07T05:39:47;2.27;90.21
67759;SHT31;54562;47.620;18.786;2022-12-07T05:42:53;2.26;90.28
67759;SHT31;54562;47.620;18.786;2022-12-07T05:46:05;2.27;90.30
67759;SHT31;54562;47.620;18.786;2022-12-07T05:49:10;2.26;90.31
67759;SHT31;54562;47.620;18.786;2022-12-07T05:52:15;2.27;90.42
67759;SHT31;54562;47.620;18.786;2022-12-07T05:55:20;2.31;90.48
67759;SHT31;54562;47.620;18.786;2022-12-07T05:58:25;2.33;90.51
67759;SHT31;54562;47.620;18.786;2022-12-07T06:01:48;2.36;90.52
67759;SHT31;54562;47.620;18.786;2022-12-07T06:04:54;2.40;90.58
67759;SHT31;54562;47.620;18.786;2022-12-07T06:07:59;2.43;90.60
67759;SHT31;54562;47.620;18.786;2022-12-07T06:11:08;2.43;90.60
67759;SHT31;54562;47.620;18.786;2022-12-07T06:14:32;2.45;90.63
67759;SHT31;54562;47.620;18.786;2022-12-07T06:17:36;2.48;90.72
67759;SHT31;54562;47.620;18.786;2022-12-07T06:20:42;2.52;90.79
67759;SHT31;54562;47.620;18.786;2022-12-07T06:23:47;2.55;90.80
67759;SHT31;54562;47.620;18.786;2022-12-07T06:26:52;2.59;90.79
67759;SHT31;54562;47.620;18.786;2022-12-07T06:29:57;2.62;90.76
67759;SHT31;54562;47.620;18.786;2022-12-07T06:33:08;2.64;90.74
67759;SHT31;54562;47.620;18.786;2022-12-07T06:36:12;2.66;90.80
67759;SHT31;54562;47.620;18.786;2022-12-07T06:39:20;2.70;90.82
67759;SHT31;54562;47.620;18.786;2022-12-07T06:42:27;2.73;90.84
67759;SHT31;54562;47.620;18.786;2022-12-07T06:45:32;2.76;90.88
67759;SHT31;54562;47.620;18.786;2022-12-07T06:48:37;2.79;90.89
67759;SHT31;54562;47.620;18.786;2022-12-07T06:51:42;2.83;90.90
67759;SHT31;54562;47.620;18.786;2022-12-07T06:54:47;2.87;90.95
67759;SHT31;54562;47.620;18.786;2022-12-07T06:57:51;2.90;90.93
67759;SHT31;54562;47.620;18.786;2022-12-07T07:00:58;2.93;90.97
67759;SHT31;54562;47.620;18.786;2022-12-07T07:04:03;2.97;91.00
67759;SHT31;54562;47.620;18.786;2022-12-07T07:07:08;3.01;91.00
67759;SHT31;54562;47.620;18.786;2022-12-07T07:10:13;3.04;91.00
67759;SHT31;54562;47.620;18.786;2022-12-07T07:13:18;3.08;91.00
67759;SHT31;54562;47.620;18.786;2022-12-07T07:16:24;3.13;91.00
67759;SHT31;54562;47.620;18.786;2022-12-07T07:19:29;3.16;91.03
67759;SHT31;54562;47.620;18.786;2022-12-07T07:22:33;3.21;91.04
67759;SHT31;54562;47.620;18.786;2022-12-07T07:25:38;3.24;91.07
67759;SHT31;54562;47.620;18.786;2022-12-07T07:28:43;3.30;91.10
67759;SHT31;54562;47.620;18.786;2022-12-07T07:31:47;3.34;91.10
67759;SHT31;54562;47.620;18.786;2022-12-07T07:34:52;3.38;91.10
67759;SHT31;54562;47.620;18.786;2022-12-07T07:37:57;3.43;91.10
67759;SHT31;54562;47.620;18.786;2022-12-07T07:41:03;3.47;91.10
67759;SHT31;54562;47.620;18.786;2022-12-07T07:44:08;3.51;91.10
67759;SHT31;54562;47.620;18.786;2022-12-07T07:47:14;3.55;91.06
67759;SHT31;54562;47.620;18.786;2022-12-07T07:50:19;3.60;91.04
67759;SHT31;54562;47.620;18.786;2022-12-07T07:53:25;3.64;91.00
67759;SHT31;54562;47.620;18.786;2022-12-07T07:56:30;3.69;90.93
67759;SHT31;54562;47.620;18.786;2022-12-07T07:59:34;3.74;90.84
67759;SHT31;54562;47.620;18.786;2022-12-07T08:02:41;3.77;90.79
67759;SHT31;54562;47.620;18.786;2022-12-07T08:05:49;3.84;90.73
67759;SHT31;54562;47.620;18.786;2022-12-07T08:08:54;3.92;90.72
67759;SHT31;54562;47.620;18.786;2022-12-07T08:12:00;3.99;90.78
67759;SHT31;54562;47.620;18.786;2022-12-07T08:15:06;4.06;90.69
67759;SHT31;54562;47.620;18.786;2022-12-07T08:18:13;4.13;90.59
67759;SHT31;54562;47.620;18.786;2022-12-07T08:21:18;4.18;90.50
67759;SHT31;54562;47.620;18.786;2022-12-07T08:24:23;4.23;90.41
67759;SHT31;54562;47.620;18.786;2022-12-07T08:27:28;4.29;90.40
67759;SHT31;54562;47.620;18.786;2022-12-07T08:30:34;4.35;90.38
67759;SHT31;54562;47.620;18.786;2022-12-07T08:33:39;4.45;90.34
67759;SHT31;54562;47.620;18.786;2022-12-07T08:36:45;4.56;90.39
67759;SHT31;54562;47.620;18.786;2022-12-07T08:39:50;4.68;90.33
67759;SHT31;54562;47.620;18.786;2022-12-07T08:42:56;4.77;90.12
67759;SHT31;54562;47.620;18.786;2022-12-07T08:46:03;4.81;89.91
67759;SHT31;54562;47.620;18.786;2022-12-07T08:49:14;4.85;89.79
67759;SHT31;54562;47.620;18.786;2022-12-07T08:52:25;4.91;89.75
67759;SHT31;54562;47.620;18.786;2022-12-07T08:55:32;4.93;89.58
67759;SHT31;54562;47.620;18.786;2022-12-07T08:58:38;4.97;89.49
67759;SHT31;54562;47.620;18.786;2022-12-07T09:01:44;4.99;89.43
67759;SHT31;54562;47.620;18.786;2022-12-07T09:04:49;5.03;89.36
67759;SHT31;54562;47.620;18.786;2022-12-07T09:07:55;5.09;89.26
67759;SHT31;54562;47.620;18.786;2022-12-07T09:11:04;5.19;89.21
67759;SHT31;54562;47.620;18.786;2022-12-07T09:14:09;5.26;89.02
67759;SHT31;54562;47.620;18.786;2022-12-07T09:17:14;5.30;88.82
67759;SHT31;54562;47.620;18.786;2022-12-07T09:20:19;5.36;88.80
67759;SHT31;54562;47.620;18.786;2022-12-07T09:23:29;5.41;88.70
67759;SHT31;54562;47.620;18.786;2022-12-07T09:26:35;5.44;88.51
67759;SHT31;54562;47.620;18.786;2022-12-07T09:29:42;5.50;88.43
67759;SHT31;54562;47.620;18.786;2022-12-07T09:32:48;5.53;88.27
67759;SHT31;54562;47.620;18.786;2022-12-07T09:35:55;5.55;88.15
67759;SHT31;54562;47.620;18.786;2022-12-07T09:39:00;5.56;87.95
67759;SHT31;54562;47.620;18.786;2022-12-07T09:42:06;5.56;87.83
67759;SHT31;54562;47.620;18.786;2022-12-07T09:45:22;5.57;87.65
67759;SHT31;54562;47.620;18.786;2022-12-07T09:48:34;5.57;87.63
67759;SHT31;54562;47.620;18.786;2022-12-07T09:51:42;5.61;87.60
67759;SHT31;54562;47.620;18.786;2022-12-07T09:54:47;5.61;87.53
67759;SHT31;54562;47.620;18.786;2022-12-07T09:57:54;5.60;87.40
67759;SHT31;54562;47.620;18.786;2022-12-07T10:01:00;5.60;87.39
67759;SHT31;54562;47.620;18.786;2022-12-07T10:04:16;5.58;87.22
67759;SHT31;54562;47.620;18.786;2022-12-07T10:07:23;5.56;87.19
67759;SHT31;54562;47.620;18.786;2022-12-07T10:10:30;5.54;87.03
67759;SHT31;54562;47.620;18.786;2022-12-07T10:13:42;5.55;87.06
67759;SHT31;54562;47.620;18.786;2022-12-07T10:16:51;5.53;86.71
67759;SHT31;54562;47.620;18.786;2022-12-07T10:23:28;5.51;86.60
67759;SHT31;54562;47.620;18.786;2022-12-07T10:26:33;5.49;86.47
67759;SHT31;54562;47.620;18.786;2022-12-07T10:29:41;5.45;86.43
67759;SHT31;54562;47.620;18.786;2022-12-07T10:32:54;5.44;86.56
67759;SHT31;54562;47.620;18.786;2022-12-07T10:35:59;5.44;86.63
67759;SHT31;54562;47.620;18.786;2022-12-07T10:39:19;5.46;86.68
67759;SHT31;54562;47.620;18.786;2022-12-07T10:42:27;5.46;86.53
67759;SHT31;54562;47.620;18.786;2022-12-07T10:45:35;5.47;86.58
67759;SHT31;54562;47.620;18.786;2022-12-07T10:49:23;5.48;86.49
67759;SHT31;54562;47.620;18.786;2022-12-07T10:56:38;5.66;86.67
67759;SHT31;54562;47.620;18.786;2022-12-07T11:00:10;5.77;86.59
67759;SHT31;54562;47.620;18.786;2022-12-07T11:03:27;5.89;86.57
67759;SHT31;54562;47.620;18.786;2022-12-07T11:06:47;5.98;86.57
67759;SHT31;54562;47.620;18.786;2022-12-07T11:10:06;6.07;86.43
67759;SHT31;54562;47.620;18.786;2022-12-07T11:13:29;6.13;86.18
67759;SHT31;54562;47.620;18.786;2022-12-07T11:16:49;6.15;85.60
67759;SHT31;54562;47.620;18.786;2022-12-07T11:20:04;6.14;85.28
67759;SHT31;54562;47.620;18.786;2022-12-07T11:23:29;6.09;84.73
67759;SHT31;54562;47.620;18.786;2022-12-07T11:26:50;6.00;84.28
67759;SHT31;54562;47.620;18.786;2022-12-07T11:30:16;5.95;84.23
67759;SHT31;54562;47.620;18.786;2022-12-07T11:33:27;5.92;84.21
67759;SHT31;54562;47.620;18.786;2022-12-07T11:36:44;5.93;84.29
67759;SHT31;54562;47.620;18.786;2022-12-07T11:39:56;5.98;84.29
67759;SHT31;54562;47.620;18.786;2022-12-07T11:43:11;6.15;84.50
67759;SHT31;54562;47.620;18.786;2022-12-07T11:46:25;6.38;84.39
67759;SHT31;54562;47.620;18.786;2022-12-07T11:49:41;6.56;84.15
67759;SHT31;54562;47.620;18.786;2022-12-07T11:52:57;6.64;83.86
67759;SHT31;54562;47.620;18.786;2022-12-07T11:56:07;6.75;83.67
67759;SHT31;54562;47.620;18.786;2022-12-07T11:59:17;6.88;83.47
67759;SHT31;54562;47.620;18.786;2022-12-07T12:02:33;7.12;83.04
67759;SHT31;54562;47.620;18.786;2022-12-07T12:05:45;7.14;82.47
67759;SHT31;54562;47.620;18.786;2022-12-07T12:08:53;7.07;82.15
67759;SHT31;54562;47.620;18.786;2022-12-07T12:12:44;7.08;82.19
67759;SHT31;54562;47.620;18.786;2022-12-07T12:16:49;7.09;81.97
67759;SHT31;54562;47.620;18.786;2022-12-07T12:20:35;7.32;81.84
67759;SHT31;54562;47.620;18.786;2022-12-07T12:23:47;7.67;81.24
67759;SHT31;54562;47.620;18.786;2022-12-07T12:26:59;7.50;81.18
67759;SHT31;54562;47.620;18.786;2022-12-07T12:33:34;7.12;80.90
67759;SHT31;54562;47.620;18.786;2022-12-07T12:36:46;6.97;80.73
67759;SHT31;54562;47.620;18.786;2022-12-07T12:43:49;6.71;80.61
67759;SHT31;54562;47.620;18.786;2022-12-07T12:46:56;6.61;80.50
67759;SHT31;54562;47.620;18.786;2022-12-07T12:50:15;6.55;80.80
67759;SHT31;54562;47.620;18.786;2022-12-07T12:53:24;6.50;80.87
67759;SHT31;54562;47.620;18.786;2022-12-07T12:56:35;6.45;81.08
67759;SHT31;54562;47.620;18.786;2022-12-07T12:59:56;6.45;81.28
67759;SHT31;54562;47.620;18.786;2022-12-07T13:03:16;6.62;81.42
67759;SHT31;54562;47.620;18.786;2022-12-07T13:06:34;6.80;81.17
67759;SHT31;54562;47.620;18.786;2022-12-07T13:09:42;6.68;81.36
67759;SHT31;54562;47.620;18.786;2022-12-07T13:12:55;6.59;81.29
67759;SHT31;54562;47.620;18.786;2022-12-07T13:23:01;6.46;80.46
67759;SHT31;54562;47.620;18.786;2022-12-07T13:26:12;6.47;80.54
67759;SHT31;54562;47.620;18.786;2022-12-07T13:29:20;6.39;80.28
67759;SHT31;54562;47.620;18.786;2022-12-07T13:32:26;6.28;80.25
67759;SHT31;54562;47.620;18.786;2022-12-07T13:35:34;6.20;80.54
67759;SHT31;54562;47.620;18.786;2022-12-07T13:38:47;6.17;80.55
67759;SHT31;54562;47.620;18.786;2022-12-07T13:41:56;6.12;80.47
67759;SHT31;54562;47.620;18.786;2022-12-07T13:45:20;6.07;80.57
67759;SHT31;54562;47.620;18.786;2022-12-07T13:48:50;6.01;80.68
67759;SHT31;54562;47.620;18.786;2022-12-07T13:52:14;5.99;80.78
67759;SHT31;54562;47.620;18.786;2022-12-07T13:55:22;6.03;80.66
67759;SHT31;54562;47.620;18.786;2022-12-07T13:58:29;6.14;80.60
67759;SHT31;54562;47.620;18.786;2022-12-07T14:01:36;6.14;80.50
67759;SHT31;54562;47.620;18.786;2022-12-07T14:04:41;6.11;80.46
67759;SHT31;54562;47.620;18.786;2022-12-07T14:07:49;6.37;80.46
67759;SHT31;54562;47.620;18.786;2022-12-07T14:11:00;6.39;80.10
67759;SHT31;54562;47.620;18.786;2022-12-07T14:14:05;6.26;80.15
67759;SHT31;54562;47.620;18.786;2022-12-07T14:17:17;6.15;80.31
67759;SHT31;54562;47.620;18.786;2022-12-07T14:20:29;6.08;80.50
67759;SHT31;54562;47.620;18.786;2022-12-07T14:23:37;6.01;80.63
67759;SHT31;54562;47.620;18.786;2022-12-07T14:26:43;5.95;80.77
67759;SHT31;54562;47.620;18.786;2022-12-07T14:29:49;5.85;80.82
67759;SHT31;54562;47.620;18.786;2022-12-07T14:32:55;5.77;80.90
67759;SHT31;54562;47.620;18.786;2022-12-07T14:36:04;5.67;80.79
67759;SHT31;54562;47.620;18.786;2022-12-07T14:39:11;5.55;80.82
67759;SHT31;54562;47.620;18.786;2022-12-07T14:42:16;5.45;80.82
67759;SHT31;54562;47.620;18.786;2022-12-07T14:45:21;5.33;80.80
67759;SHT31;54562;47.620;18.786;2022-12-07T14:48:26;5.21;80.80
67759;SHT31;54562;47.620;18.786;2022-12-07T14:51:52;5.08;80.82
67759;SHT31;54562;47.620;18.786;2022-12-07T14:55:19;4.97;80.97
67759;SHT31;54562;47.620;18.786;2022-12-07T14:58:27;4.86;80.91
67759;SHT31;54562;47.620;18.786;2022-12-07T15:01:32;4.74;81.04
67759;SHT31;54562;47.620;18.786;2022-12-07T15:04:37;4.59;81.04
67759;SHT31;54562;47.620;18.786;2022-12-07T15:07:42;4.46;81.16
67759;SHT31;54562;47.620;18.786;2022-12-07T15:10:47;4.33;81.16
67759;SHT31;54562;47.620;18.786;2022-12-07T15:13:53;4.21;81.53
67759;SHT31;54562;47.620;18.786;2022-12-07T15:17:14;4.10;81.54
67759;SHT31;54562;47.620;18.786;2022-12-07T15:20:33;4.01;81.69
67759;SHT31;54562;47.620;18.786;2022-12-07T15:23:38;3.94;81.88
67759;SHT31;54562;47.620;18.786;2022-12-07T15:26:43;3.86;81.82
67759;SHT31;54562;47.620;18.786;2022-12-07T15:29:49;3.78;82.03
67759;SHT31;54562;47.620;18.786;2022-12-07T15:32:55;3.72;82.34
67759;SHT31;54562;47.620;18.786;2022-12-07T15:36:00;3.66;82.61
67759;SHT31;54562;47.620;18.786;2022-12-07T15:39:06;3.60;82.70
67759;SHT31;54562;47.620;18.786;2022-12-07T15:42:16;3.54;82.72
67759;SHT31;54562;47.620;18.786;2022-12-07T15:45:21;3.46;82.72
67759;SHT31;54562;47.620;18.786;2022-12-07T15:48:26;3.39;82.97
67759;SHT31;54562;47.620;18.786;2022-12-07T15:51:31;3.36;83.18
67759;SHT31;54562;47.620;18.786;2022-12-07T15:54:36;3.30;83.13
67759;SHT31;54562;47.620;18.786;2022-12-07T15:57:41;3.27;83.20
67759;SHT31;54562;47.620;18.786;2022-12-07T16:00:46;3.23;83.20
67759;SHT31;54562;47.620;18.786;2022-12-07T16:03:52;3.19;83.43
67759;SHT31;54562;47.620;18.786;2022-12-07T16:06:56;3.13;83.54
67759;SHT31;54562;47.620;18.786;2022-12-07T16:10:01;3.09;83.63
67759;SHT31;54562;47.620;18.786;2022-12-07T16:13:07;3.05;83.68
67759;SHT31;54562;47.620;18.786;2022-12-07T16:16:14;2.99;83.82
67759;SHT31;54562;47.620;18.786;2022-12-07T16:19:21;2.96;83.97
67759;SHT31;54562;47.620;18.786;2022-12-07T16:22:26;2.93;84.10
67759;SHT31;54562;47.620;18.786;2022-12-07T16:25:39;2.89;84.11
67759;SHT31;54562;47.620;18.786;2022-12-07T16:28:45;2.86;84.23
67759;SHT31;54562;47.620;18.786;2022-12-07T16:31:53;2.83;84.28
67759;SHT31;54562;47.620;18.786;2022-12-07T16:34:58;2.80;84.30
67759;SHT31;54562;47.620;18.786;2022-12-07T16:38:04;2.76;84.34
67759;SHT31;54562;47.620;18.786;2022-12-07T16:41:08;2.70;84.01
67759;SHT31;54562;47.620;18.786;2022-12-07T16:44:14;2.63;83.87
67759;SHT31;54562;47.620;18.786;2022-12-07T16:47:19;2.58;83.81
67759;SHT31;54562;47.620;18.786;2022-12-07T16:50:27;2.57;83.91
67759;SHT31;54562;47.620;18.786;2022-12-07T16:53:32;2.55;83.99
67759;SHT31;54562;47.620;18.786;2022-12-07T16:56:38;2.51;83.90
67759;SHT31;54562;47.620;18.786;2022-12-07T16:59:43;2.49;83.86
67759;SHT31;54562;47.620;18.786;2022-12-07T17:02:49;2.48;83.91
67759;SHT31;54562;47.620;18.786;2022-12-07T17:05:54;2.47;84.11
67759;SHT31;54562;47.620;18.786;2022-12-07T17:08:59;2.47;84.43
67759;SHT31;54562;47.620;18.786;2022-12-07T17:12:06;2.47;84.51
67759;SHT31;54562;47.620;18.786;2022-12-07T17:15:11;2.44;84.50
67759;SHT31;54562;47.620;18.786;2022-12-07T17:18:23;2.43;84.57
67759;SHT31;54562;47.620;18.786;2022-12-07T17:21:30;2.40;84.57
67759;SHT31;54562;47.620;18.786;2022-12-07T17:24:36;2.35;84.40
67759;SHT31;54562;47.620;18.786;2022-12-07T17:27:41;2.32;84.28
67759;SHT31;54562;47.620;18.786;2022-12-07T17:30:48;2.28;84.16
67759;SHT31;54562;47.620;18.786;2022-12-07T17:33:55;2.23;84.18
67759;SHT31;54562;47.620;18.786;2022-12-07T17:37:02;2.20;84.36
67759;SHT31;54562;47.620;18.786;2022-12-07T17:40:08;2.16;84.47
67759;SHT31;54562;47.620;18.786;2022-12-07T17:43:14;2.15;84.59
67759;SHT31;54562;47.620;18.786;2022-12-07T17:46:19;2.13;84.70
67759;SHT31;54562;47.620;18.786;2022-12-07T17:49:25;2.12;84.80
67759;SHT31;54562;47.620;18.786;2022-12-07T17:52:31;2.09;84.78
67759;SHT31;54562;47.620;18.786;2022-12-07T17:55:57;2.07;84.84
67759;SHT31;54562;47.620;18.786;2022-12-07T17:59:22;2.04;84.91
67759;SHT31;54562;47.620;18.786;2022-12-07T18:02:27;2.02;84.92
67759;SHT31;54562;47.620;18.786;2022-12-07T18:05:33;1.96;84.84
67759;SHT31;54562;47.620;18.786;2022-12-07T18:08:39;1.93;84.78
67759;SHT31;54562;47.620;18.786;2022-12-07T18:11:44;1.90;85.05
67759;SHT31;54562;47.620;18.786;2022-12-07T18:14:49;1.87;84.86
67759;SHT31;54562;47.620;18.786;2022-12-07T18:17:56;1.82;84.84
67759;SHT31;54562;47.620;18.786;2022-12-07T18:21:02;1.76;84.80
67759;SHT31;54562;47.620;18.786;2022-12-07T18:24:12;1.73;84.86
67759;SHT31;54562;47.620;18.786;2022-12-07T18:27:19;1.68;85.00
67759;SHT31;54562;47.620;18.786;2022-12-07T18:30:24;1.65;85.11
67759;SHT31;54562;47.620;18.786;2022-12-07T18:33:52;1.64;85.21
67759;SHT31;54562;47.620;18.786;2022-12-07T18:36:58;1.65;85.26
67759;SHT31;54562;47.620;18.786;2022-12-07T18:40:03;1.63;84.97
67759;SHT31;54562;47.620;18.786;2022-12-07T18:43:14;1.60;84.89
67759;SHT31;54562;47.620;18.786;2022-12-07T18:46:20;1.58;84.94
67759;SHT31;54562;47.620;18.786;2022-12-07T18:49:26;1.59;85.04
67759;SHT31;54562;47.620;18.786;2022-12-07T18:52:32;1.62;84.95
67759;SHT31;54562;47.620;18.786;2022-12-07T18:55:38;1.64;84.94
67759;SHT31;54562;47.620;18.786;2022-12-07T18:58:43;1.66;84.90
67759;SHT31;54562;47.620;18.786;2022-12-07T19:02:12;1.68;84.96
67759;SHT31;54562;47.620;18.786;2022-12-07T19:05:17;1.68;85.07
67759;SHT31;54562;47.620;18.786;2022-12-07T19:08:26;1.70;85.19
67759;SHT31;54562;47.620;18.786;2022-12-07T19:11:31;1.66;84.82
67759;SHT31;54562;47.620;18.786;2022-12-07T19:14:54;1.59;84.60
67759;SHT31;54562;47.620;18.786;2022-12-07T19:18:01;1.55;84.59
67759;SHT31;54562;47.620;18.786;2022-12-07T19:21:06;1.50;84.31
67759;SHT31;54562;47.620;18.786;2022-12-07T19:24:12;1.42;84.27
67759;SHT31;54562;47.620;18.786;2022-12-07T19:27:25;1.39;84.54
67759;SHT31;54562;47.620;18.786;2022-12-07T19:30:31;1.38;84.83
67759;SHT31;54562;47.620;18.786;2022-12-07T19:33:37;1.38;85.13
67759;SHT31;54562;47.620;18.786;2022-12-07T19:36:43;1.39;85.12
67759;SHT31;54562;47.620;18.786;2022-12-07T19:39:49;1.36;84.83
67759;SHT31;54562;47.620;18.786;2022-12-07T19:42:55;1.33;84.67
67759;SHT31;54562;47.620;18.786;2022-12-07T19:46:03;1.26;84.69
67759;SHT31;54562;47.620;18.786;2022-12-07T19:49:10;1.21;84.95
67759;SHT31;54562;47.620;18.786;2022-12-07T19:52:18;1.20;85.22
67759;SHT31;54562;47.620;18.786;2022-12-07T19:55:23;1.18;85.30
67759;SHT31;54562;47.620;18.786;2022-12-07T19:58:28;1.15;85.31
67759;SHT31;54562;47.620;18.786;2022-12-07T20:01:34;1.10;85.39
67759;SHT31;54562;47.620;18.786;2022-12-07T20:04:41;1.06;85.49
67759;SHT31;54562;47.620;18.786;2022-12-07T20:07:47;1.05;85.63
67759;SHT31;54562;47.620;18.786;2022-12-07T20:10:57;1.07;85.72
67759;SHT31;54562;47.620;18.786;2022-12-07T20:14:22;1.10;85.77
67759;SHT31;54562;47.620;18.786;2022-12-07T20:17:28;1.12;85.70
67759;SHT31;54562;47.620;18.786;2022-12-07T20:20:33;1.12;85.70
67759;SHT31;54562;47.620;18.786;2022-12-07T20:23:40;1.12;85.68
67759;SHT31;54562;47.620;18.786;2022-12-07T20:26:46;1.11;85.70